Time;durP1;ratioP1;P1;durP2;ratioP2;P2;SDS_P1;SDS_P2;PMS_P1;PMS_P2;Temp;Humidity;BMP_temperature;BMP_pressure;BME280_temperature;BME280_humidity;BME280_pressure;Samples;Min_cycle;Max_cycle;Signal;HPM_P1;HPM_P2
2021/07/29 00:01:35;;;;;;;;;;;;;;;30.14;35.52;99532.88;5091315;28;19912;-37
2021/07/29 00:04:01;;;;;;;;;;;;;;;29.76;35.86;99525.66;5090912;28;20368;-36
2021/07/29 00:06:26;;;;;;;;;;;;;;;30.04;35.59;99521.50;5091206;28;19912;-36
2021/07/29 00:08:52;;;;;;;;;;;;;;;30.21;35.16;99527.63;5091551;28;19919;-38
2021/07/29 00:11:18;;;;;;;;;;;;;;;30.40;34.89;99526.28;5090903;28;19968;-37
2021/07/29 00:13:44;;;;;;;;;;;;;;;30.27;35.19;99524.63;5090831;28;19916;-37
2021/07/29 00:16:09;;;;;;;;;;;;;;;30.49;34.76;99523.44;5090522;28;19922;-37
2021/07/29 00:21:19;;;;;;;;;;;;;;;30.42;34.81;99531.44;5091109;28;19985;-37
2021/07/29 00:23:46;;;;;;;;;;;;;;;30.48;34.99;99519.09;5091273;28;19912;-37
2021/07/29 00:26:11;;;;;;;;;;;;;;;30.26;35.41;99521.09;5091090;28;20401;-37
2021/07/29 00:28:36;;;;;;;;;;;;;;;30.26;36.32;99520.31;5091031;28;19912;-37
2021/07/29 00:31:02;;;;;;;;;;;;;;;30.32;35.69;99527.19;5090884;28;19999;-37
2021/07/29 00:33:27;;;;;;;;;;;;;;;30.20;36.47;99520.53;5090673;28;20303;-37
2021/07/29 00:35:52;;;;;;;;;;;;;;;29.91;36.97;99520.66;5090845;28;19942;-37
2021/07/29 00:38:17;;;;;;;;;;;;;;;30.17;36.27;99523.13;5091067;28;19923;-37
2021/07/29 00:40:43;;;;;;;;;;;;;;;30.06;36.52;99522.75;5090976;28;19950;-37
2021/07/29 00:43:08;;;;;;;;;;;;;;;29.79;36.36;99474.81;5090665;28;19912;-35
2021/07/29 00:45:33;;;;;;;;;;;;;;;29.81;36.58;99516.41;5091129;28;19919;-36
2021/07/29 00:47:59;;;;;;;;;;;;;;;29.77;36.94;99510.81;5090662;28;19912;-37
2021/07/29 00:50:24;;;;;;;;;;;;;;;29.39;37.10;99509.03;5090968;28;20439;-37
2021/07/29 00:52:49;;;;;;;;;;;;;;;29.08;37.71;99505.88;5090851;28;20570;-36
2021/07/29 00:55:15;;;;;;;;;;;;;;;29.37;37.32;99505.03;5090784;28;20375;-37
2021/07/29 00:57:40;;;;;;;;;;;;;;;29.56;37.44;99502.59;5089559;28;19912;-37
2021/07/29 01:00:06;;;;;;;;;;;;;;;29.53;37.13;99497.78;5090429;28;20387;-37
2021/07/29 01:02:31;;;;;;;;;;;;;;;29.31;37.11;99501.69;5090697;28;19916;-37
2021/07/29 01:04:56;;;;;;;;;;;;;;;29.36;37.07;99504.22;5090723;28;19912;-37
2021/07/29 01:07:22;;;;;;;;;;;;;;;29.40;37.82;99509.84;5090997;28;19946;-37
2021/07/29 01:09:47;;;;;;;;;;;;;;;29.67;36.81;99504.94;5090596;28;19912;-37
2021/07/29 01:12:12;;;;;;;;;;;;;;;29.48;37.00;99506.22;5090538;28;19919;-37
2021/07/29 01:14:37;;;;;;;;;;;;;;;29.50;37.15;99498.47;5090721;28;19942;-36
2021/07/29 01:17:03;;;;;;;;;;;;;;;29.44;38.18;99508.03;5094459;28;19974;-37
2021/07/29 01:19:28;;;;;;;;;;;;;;;29.38;37.66;99501.94;5094478;28;19931;-37
2021/07/29 01:21:54;;;;;;;;;;;;;;;29.23;37.66;99505.31;5094343;28;19994;-37
2021/07/29 01:24:19;;;;;;;;;;;;;;;29.50;37.05;99497.66;5093981;28;19998;-37
2021/07/29 01:26:45;;;;;;;;;;;;;;;29.00;38.00;99502.06;5094072;28;19919;-36
2021/07/29 01:29:10;;;;;;;;;;;;;;;28.74;38.44;99502.22;5094165;28;19912;-36
2021/07/29 01:31:37;;;;;;;;;;;;;;;28.42;39.29;99501.69;5093941;28;19919;-36
2021/07/29 01:34:02;;;;;;;;;;;;;;;28.61;39.16;99501.31;5093915;28;19920;-36
2021/07/29 01:36:27;;;;;;;;;;;;;;;28.46;39.28;99497.97;5092473;28;19912;-37
2021/07/29 01:38:52;;;;;;;;;;;;;;;28.78;39.28;99500.41;5093952;28;19916;-36
2021/07/29 01:41:18;;;;;;;;;;;;;;;28.72;39.29;99493.53;5094176;28;19916;-37
2021/07/29 01:43:43;;;;;;;;;;;;;;;28.44;39.78;99508.47;5104223;28;19930;-37
2021/07/29 01:46:08;;;;;;;;;;;;;;;28.51;39.80;99509.88;5114348;28;19912;-37
2021/07/29 01:48:36;;;;;;;;;;;;;;;28.25;39.81;99510.75;5100588;28;19917;-37
2021/07/29 01:51:01;;;;;;;;;;;;;;;28.46;39.68;99511.66;5093572;28;20014;-37
2021/07/29 01:53:27;;;;;;;;;;;;;;;27.59;41.43;99502.88;5093526;28;20006;-37
2021/07/29 01:55:52;;;;;;;;;;;;;;;27.73;41.58;99516.34;5093604;28;19912;-37
2021/07/29 01:58:17;;;;;;;;;;;;;;;27.55;41.82;99513.63;5093686;28;20437;-37
2021/07/29 02:00:46;;;;;;;;;;;;;;;27.71;41.75;99505.72;5092141;28;19982;-37
2021/07/29 02:03:12;;;;;;;;;;;;;;;27.91;40.95;99504.25;5093265;28;19920;-37
2021/07/29 02:05:37;;;;;;;;;;;;;;;27.80;41.08;99511.19;5093461;28;19912;-37
2021/07/29 02:08:03;;;;;;;;;;;;;;;28.02;40.76;99513.72;5093303;28;19927;-36
2021/07/29 02:10:28;;;;;;;;;;;;;;;28.02;40.68;99519.19;5093284;28;19966;-36
2021/07/29 02:12:53;;;;;;;;;;;;;;;27.88;40.74;99513.94;5093417;28;20057;-36
2021/07/29 02:15:19;;;;;;;;;;;;;;;28.26;40.40;99513.19;5093192;28;19923;-37
2021/07/29 02:17:44;;;;;;;;;;;;;;;28.65;39.42;99515.94;5093312;28;20088;-36
2021/07/29 02:20:10;;;;;;;;;;;;;;;28.06;41.05;99520.19;5092691;28;19931;-36
2021/07/29 02:22:35;;;;;;;;;;;;;;;27.93;41.80;99515.69;5092899;28;19912;-37
2021/07/29 02:25:00;;;;;;;;;;;;;;;27.93;41.47;99515.69;5093287;28;20004;-37
2021/07/29 02:27:26;;;;;;;;;;;;;;;28.13;40.98;99516.13;5092527;28;19916;-36
2021/07/29 02:29:51;;;;;;;;;;;;;;;28.05;41.62;99521.28;5093009;28;20005;-37
2021/07/29 02:32:16;;;;;;;;;;;;;;;28.04;41.75;99518.88;5092762;28;20352;-37
2021/07/29 02:34:42;;;;;;;;;;;;;;;27.99;41.61;99517.13;5092712;28;19917;-37
2021/07/29 02:37:07;;;;;;;;;;;;;;;27.42;43.21;99517.34;5092876;28;20284;-37
2021/07/29 02:39:32;;;;;;;;;;;;;;;27.71;42.81;99524.84;5093021;28;19962;-37
2021/07/29 02:41:57;;;;;;;;;;;;;;;27.72;42.15;99522.91;5092627;28;19912;-37
2021/07/29 02:44:23;;;;;;;;;;;;;;;27.87;42.40;99516.94;5092739;28;19989;-37
2021/07/29 02:46:48;;;;;;;;;;;;;;;28.35;41.39;99520.53;5092324;28;20010;-36
2021/07/29 02:49:14;;;;;;;;;;;;;;;28.01;42.13;99525.00;5092541;28;19942;-37
2021/07/29 02:51:39;;;;;;;;;;;;;;;27.85;42.78;99524.66;5092375;28;19916;-37
2021/07/29 02:54:04;;;;;;;;;;;;;;;27.61;42.99;99533.41;5091382;28;20383;-37
2021/07/29 02:56:29;;;;;;;;;;;;;;;27.81;42.78;99535.44;5092562;28;20128;-37
2021/07/29 02:58:55;;;;;;;;;;;;;;;27.82;42.18;99536.28;5092161;28;19912;-37
2021/07/29 03:01:20;;;;;;;;;;;;;;;27.72;42.72;99542.88;5092200;28;19912;-37
2021/07/29 03:03:45;;;;;;;;;;;;;;;27.51;43.55;99553.63;5092191;28;19920;-37
2021/07/29 03:06:11;;;;;;;;;;;;;;;27.67;43.32;99553.97;5091987;28;19912;-37
2021/07/29 03:08:36;;;;;;;;;;;;;;;27.88;42.41;99546.72;5092103;28;20321;-37
2021/07/29 03:11:02;;;;;;;;;;;;;;;27.94;41.88;99550.09;5092175;28;20251;-37
2021/07/29 03:13:27;;;;;;;;;;;;;;;27.40;43.76;99552.38;5091873;28;19920;-37
2021/07/29 03:15:53;;;;;;;;;;;;;;;27.55;43.31;99557.34;5092141;28;20283;-37
2021/07/29 03:18:19;;;;;;;;;;;;;;;27.60;43.36;99564.56;5091685;28;19981;-36
2021/07/29 03:20:44;;;;;;;;;;;;;;;27.67;42.80;99568.44;5091790;28;20007;-37
2021/07/29 03:23:09;;;;;;;;;;;;;;;27.75;42.70;99566.03;5091710;28;19912;-37
2021/07/29 03:25:35;;;;;;;;;;;;;;;27.51;43.34;99572.75;5091907;28;19963;-37
2021/07/29 03:28:00;;;;;;;;;;;;;;;27.91;42.67;99567.16;5091717;28;20011;-36
2021/07/29 03:30:26;;;;;;;;;;;;;;;27.86;42.95;99570.84;5091671;28;19912;-36
2021/07/29 03:32:51;;;;;;;;;;;;;;;28.10;42.13;99575.00;5091799;28;19916;-37
2021/07/29 03:35:16;;;;;;;;;;;;;;;27.44;43.29;99567.78;5091635;28;19927;-37
2021/07/29 03:37:42;;;;;;;;;;;;;;;26.34;45.86;99566.75;5091363;28;19916;-37
2021/07/29 03:40:07;;;;;;;;;;;;;;;25.72;47.50;99567.44;5091685;28;19912;-37
2021/07/29 03:42:33;;;;;;;;;;;;;;;26.33;45.62;99568.69;5090444;28;19918;-36
2021/07/29 03:44:58;;;;;;;;;;;;;;;26.73;43.90;99570.63;5111803;28;19931;-36
2021/07/29 03:47:24;;;;;;;;;;;;;;;26.96;43.57;99570.56;5108484;28;19916;-37
2021/07/29 03:49:49;;;;;;;;;;;;;;;27.10;43.40;99563.06;5091526;28;19958;-38
2021/07/29 03:52:15;;;;;;;;;;;;;;;27.37;42.18;99563.91;5091524;28;19912;-36
2021/07/29 03:54:40;;;;;;;;;;;;;;;27.63;41.75;99561.22;5091352;28;19916;-36
2021/07/29 03:57:05;;;;;;;;;;;;;;;27.43;41.95;99562.63;5091186;28;19915;-35
2021/07/29 03:59:31;;;;;;;;;;;;;;;27.17;42.24;99565.28;5089618;28;19990;-36
2021/07/29 04:01:56;;;;;;;;;;;;;;;27.07;42.43;99556.31;5090997;28;19984;-36
2021/07/29 04:04:21;;;;;;;;;;;;;;;27.49;41.76;99564.06;5091022;28;19916;-36
2021/07/29 04:06:47;;;;;;;;;;;;;;;27.41;42.23;99567.63;5091182;28;20010;-37
2021/07/29 04:09:12;;;;;;;;;;;;;;;27.78;42.33;99560.72;5091378;28;19912;-36
2021/07/29 04:11:37;;;;;;;;;;;;;;;28.07;41.35;99562.78;5091066;28;20348;-38
2021/07/29 04:14:02;;;;;;;;;;;;;;;28.39;40.86;99559.81;5090855;28;19960;-36
2021/07/29 04:16:28;;;;;;;;;;;;;;;28.55;40.28;99560.91;5090668;28;19958;-37
2021/07/29 04:18:53;;;;;;;;;;;;;;;28.72;39.95;99562.75;5090806;28;20014;-38
2021/07/29 04:21:18;;;;;;;;;;;;;;;28.91;40.30;99561.56;5090916;28;19916;-36
2021/07/29 04:23:44;;;;;;;;;;;;;;;29.03;39.34;99562.44;5090876;28;19912;-37
2021/07/29 04:26:09;;;;;;;;;;;;;;;28.85;39.01;99559.00;5090727;28;19922;-37
2021/07/29 04:28:34;;;;;;;;;;;;;;;29.32;38.69;99549.88;5090698;28;19926;-37
2021/07/29 04:30:59;;;;;;;;;;;;;;;29.76;37.91;99547.59;5090617;28;20383;-37
2021/07/29 04:33:25;;;;;;;;;;;;;;;30.02;37.58;99558.31;5090625;28;19999;-37
2021/07/29 04:35:50;;;;;;;;;;;;;;;30.11;37.03;99560.97;5090536;28;19939;-37
2021/07/29 04:38:15;;;;;;;;;;;;;;;30.23;38.04;99557.44;5090577;28;19912;-37
2021/07/29 04:40:41;;;;;;;;;;;;;;;30.39;37.59;99558.44;5090481;28;20015;-37
2021/07/29 04:43:06;;;;;;;;;;;;;;;30.89;36.61;99552.97;5090858;28;19990;-36
2021/07/29 04:45:31;;;;;;;;;;;;;;;31.00;36.04;99554.13;5090467;28;20517;-37
2021/07/29 04:47:56;;;;;;;;;;;;;;;30.65;36.47;99554.53;5090179;28;19931;-37
2021/07/29 04:50:22;;;;;;;;;;;;;;;30.56;36.73;99560.16;5093308;28;19916;-48
2021/07/29 04:52:50;;;;;;;;;;;;;;;30.85;36.47;99560.28;5094510;28;20372;-51
2021/07/29 04:55:15;;;;;;;;;;;;;;;30.79;36.34;99548.72;5094579;28;19916;-47
2021/07/29 04:57:40;;;;;;;;;;;;;;;30.77;36.26;99551.03;5095033;28;19996;-49
2021/07/29 05:00:06;;;;;;;;;;;;;;;31.38;35.84;99563.91;5094424;28;19919;-48
2021/07/29 05:02:31;;;;;;;;;;;;;;;31.54;34.99;99564.78;5094335;28;20026;-51
2021/07/29 05:04:57;;;;;;;;;;;;;;;32.04;33.86;99568.16;5094202;28;19919;-49
2021/07/29 05:07:22;;;;;;;;;;;;;;;32.18;33.99;99569.69;5092496;28;19919;-48
2021/07/29 05:09:48;;;;;;;;;;;;;;;32.15;33.32;99576.69;5094287;28;19951;-50
2021/07/29 05:12:13;;;;;;;;;;;;;;;32.60;32.62;99575.53;5093686;28;20382;-51
2021/07/29 05:14:38;;;;;;;;;;;;;;;32.99;31.96;99572.88;5093478;28;19916;-48
2021/07/29 05:17:04;;;;;;;;;;;;;;;32.89;32.24;99578.97;5092924;28;20353;-50
2021/07/29 05:19:30;;;;;;;;;;;;;;;33.07;32.10;99582.13;5093464;28;19928;-52
2021/07/29 05:21:55;;;;;;;;;;;;;;;33.36;31.32;99575.31;5093539;28;19966;-51
2021/07/29 05:24:20;;;;;;;;;;;;;;;33.30;30.70;99576.75;5093472;28;19912;-51
2021/07/29 05:26:47;;;;;;;;;;;;;;;33.97;29.99;99573.81;5092463;28;20156;-51
2021/07/29 05:29:13;;;;;;;;;;;;;;;33.82;29.89;99582.97;5092987;28;19998;-51
2021/07/29 05:31:41;;;;;;;;;;;;;;;33.94;30.10;99582.03;5093091;28;19982;-51
2021/07/29 05:34:07;;;;;;;;;;;;;;;34.06;29.36;99574.38;5093076;28;19916;-50
2021/07/29 05:36:32;;;;;;;;;;;;;;;33.92;29.53;99581.59;5093424;28;19926;-49
2021/07/29 05:38:57;;;;;;;;;;;;;;;34.11;29.13;99581.56;5093104;28;19951;-51
2021/07/29 05:41:23;;;;;;;;;;;;;;;34.11;29.34;99584.31;5091213;28;20361;-51
2021/07/29 05:43:49;;;;;;;;;;;;;;;34.05;29.58;99574.75;5093446;28;20343;-50
2021/07/29 05:46:14;;;;;;;;;;;;;;;34.03;29.21;99583.38;5091971;28;19944;-51
2021/07/29 05:48:40;;;;;;;;;;;;;;;34.16;29.17;99586.03;5092607;28;19916;-50
2021/07/29 05:51:05;;;;;;;;;;;;;;;34.60;28.89;99586.38;5089103;28;20011;-50
2021/07/29 05:53:30;;;;;;;;;;;;;;;35.09;28.63;99589.50;5091875;28;19948;-51
2021/07/29 05:55:56;;;;;;;;;;;;;;;35.19;27.61;99586.94;5091919;28;19962;-49
2021/07/29 05:58:21;;;;;;;;;;;;;;;35.22;27.32;99588.16;5091895;28;19911;-48
2021/07/29 06:00:46;;;;;;;;;;;;;;;35.40;27.30;99588.41;5090872;28;19916;-48
2021/07/29 06:03:12;;;;;;;;;;;;;;;36.18;26.57;99588.56;5092017;28;20247;-48
2021/07/29 06:05:37;;;;;;;;;;;;;;;36.18;26.48;99577.50;5092113;28;20287;-49
2021/07/29 06:08:02;;;;;;;;;;;;;;;36.01;26.11;99578.88;5092233;28;19923;-49
2021/07/29 06:10:27;;;;;;;;;;;;;;;36.39;25.49;99581.63;5090867;28;20023;-48
2021/07/29 06:12:53;;;;;;;;;;;;;;;36.33;25.47;99583.97;5090661;28;19976;-52
2021/07/29 06:15:18;;;;;;;;;;;;;;;36.79;24.70;99585.56;5090763;28;19986;-50
2021/07/29 06:17:47;;;;;;;;;;;;;;;36.66;25.03;99592.56;5090511;28;19982;-51
2021/07/29 06:20:13;;;;;;;;;;;;;;;36.21;25.78;99592.53;5089536;28;19942;-47
2021/07/29 06:22:38;;;;;;;;;;;;;;;36.81;25.06;99585.97;5089468;28;19924;-50
2021/07/29 06:25:07;;;;;;;;;;;;;;;37.51;24.55;99592.34;5089614;28;20007;-49
2021/07/29 06:27:33;;;;;;;;;;;;;;;36.14;25.00;99589.69;5089637;28;19946;-50
2021/07/29 06:29:59;;;;;;;;;;;;;;;36.19;25.40;99575.50;5089470;28;19922;-51
2021/07/29 06:32:24;;;;;;;;;;;;;;;35.50;26.12;99592.47;5089905;28;20011;-52
2021/07/29 06:34:49;;;;;;;;;;;;;;;36.29;24.48;99590.63;5091055;28;19986;-51
2021/07/29 06:37:15;;;;;;;;;;;;;;;37.31;23.53;99596.59;5090680;28;20015;-51
2021/07/29 06:39:40;;;;;;;;;;;;;;;37.35;23.26;99589.06;5091178;28;20299;-50
2021/07/29 06:42:05;;;;;;;;;;;;;;;37.29;23.52;99593.41;5090926;28;19912;-49
2021/07/29 06:44:31;;;;;;;;;;;;;;;37.17;23.69;99594.53;5101410;28;19919;-50
2021/07/29 06:46:56;;;;;;;;;;;;;;;37.41;23.92;99586.72;5091088;28;19935;-49
2021/07/29 06:49:26;;;;;;;;;;;;;;;38.05;22.88;99586.19;5090706;28;19912;-50
2021/07/29 06:51:51;;;;;;;;;;;;;;;38.42;22.39;99573.94;5090804;28;19912;-49
2021/07/29 06:54:17;;;;;;;;;;;;;;;38.38;22.69;99584.25;5091006;28;19916;-50
2021/07/29 06:56:43;;;;;;;;;;;;;;;38.19;23.07;99582.66;5090772;28;20228;-50
2021/07/29 06:59:08;;;;;;;;;;;;;;;38.92;21.81;99582.28;5088724;28;19920;-48
2021/07/29 07:01:34;;;;;;;;;;;;;;;39.64;20.98;99580.13;5090534;28;19969;-50
2021/07/29 07:03:59;;;;;;;;;;;;;;;39.26;20.93;99585.41;5089888;28;19943;-51
2021/07/29 07:06:24;;;;;;;;;;;;;;;39.14;21.24;99582.25;5090146;28;20455;-50
2021/07/29 07:08:49;;;;;;;;;;;;;;;38.57;21.04;99583.09;5090247;28;20391;-50
2021/07/29 07:11:15;;;;;;;;;;;;;;;38.95;21.53;99580.69;5090313;28;19929;-48
2021/07/29 07:13:43;;;;;;;;;;;;;;;39.54;20.81;99580.94;5089425;28;19965;-50
2021/07/29 07:16:09;;;;;;;;;;;;;;;39.83;20.79;99583.56;5090484;28;19916;-51
2021/07/29 07:18:34;;;;;;;;;;;;;;;39.34;20.53;99580.59;5090413;28;20003;-51
2021/07/29 07:21:07;;;;;;;;;;;;;;;39.41;20.59;99579.78;5090560;28;19916;-50
2021/07/29 07:23:32;;;;;;;;;;;;;;;39.34;21.22;99579.78;5090037;28;20027;-50
2021/07/29 07:25:58;;;;;;;;;;;;;;;39.99;21.00;99575.56;5089399;28;19956;-50
2021/07/29 07:28:23;;;;;;;;;;;;;;;40.07;20.15;99570.72;5089942;28;20328;-51
2021/07/29 07:30:48;;;;;;;;;;;;;;;39.75;20.24;99570.91;5089706;28;20477;-48
2021/07/29 07:33:14;;;;;;;;;;;;;;;39.57;20.33;99568.22;5090243;28;20006;-50
2021/07/29 07:35:39;;;;;;;;;;;;;;;39.79;19.14;99563.31;5090310;28;19916;-48
2021/07/29 07:38:04;;;;;;;;;;;;;;;39.88;19.07;99566.44;5090197;28;20281;-49
2021/07/29 07:40:29;;;;;;;;;;;;;;;40.36;19.23;99567.75;5090185;28;19959;-50
2021/07/29 07:42:56;;;;;;;;;;;;;;;39.45;19.79;99558.31;5093632;28;20047;-50
2021/07/29 07:45:21;;;;;;;;;;;;;;;39.14;19.93;99560.78;5097033;28;19918;-48
2021/07/29 07:47:47;;;;;;;;;;;;;;;39.66;20.32;99557.41;5089684;28;20307;-50
2021/07/29 07:50:12;;;;;;;;;;;;;;;40.20;19.72;99555.13;5089807;28;19916;-50
2021/07/29 07:52:37;;;;;;;;;;;;;;;40.95;19.15;99550.09;5089997;28;20384;-50
2021/07/29 07:55:03;;;;;;;;;;;;;;;40.57;19.47;99545.25;5089534;28;19920;-50
2021/07/29 07:57:28;;;;;;;;;;;;;;;40.32;19.97;99548.25;5090065;28;19999;-50
2021/07/29 07:59:58;;;;;;;;;;;;;;;40.36;19.63;99549.03;5089758;28;20394;-48
2021/07/29 08:02:23;;;;;;;;;;;;;;;40.84;19.21;99547.41;5089643;28;19920;-50
2021/07/29 08:04:48;;;;;;;;;;;;;;;40.54;19.16;99536.97;5089670;28;19954;-50
2021/07/29 08:07:13;;;;;;;;;;;;;;;40.86;19.05;99542.25;5089668;28;19912;-48
2021/07/29 08:09:39;;;;;;;;;;;;;;;40.31;20.17;99535.53;5089534;28;20372;-50
2021/07/29 08:12:04;;;;;;;;;;;;;;;40.44;19.83;99533.03;5089718;28;19912;-50
2021/07/29 08:14:29;;;;;;;;;;;;;;;40.79;20.08;99531.94;5089369;28;20006;-51
2021/07/29 08:16:55;;;;;;;;;;;;;;;41.25;19.30;99537.44;5089241;28;20406;-50
2021/07/29 08:19:20;;;;;;;;;;;;;;;41.33;19.60;99534.13;5089188;28;19925;-51
2021/07/29 08:21:45;;;;;;;;;;;;;;;40.62;20.14;99532.88;5089575;28;19916;-49
2021/07/29 08:24:11;;;;;;;;;;;;;;;40.93;19.62;99525.41;5088765;28;19960;-50
2021/07/29 08:26:36;;;;;;;;;;;;;;;40.86;19.80;99524.69;5088990;28;19919;-48
2021/07/29 08:29:01;;;;;;;;;;;;;;;40.95;20.33;99527.78;5088845;28;19969;-49
2021/07/29 08:31:27;;;;;;;;;;;;;;;41.61;19.23;99519.00;5088926;28;20000;-50
2021/07/29 08:33:52;;;;;;;;;;;;;;;41.93;19.18;99522.56;5089032;28;19931;-51
2021/07/29 08:36:18;;;;;;;;;;;;;;;41.47;20.08;99513.63;5089463;28;20002;-50
2021/07/29 08:38:44;;;;;;;;;;;;;;;41.12;20.01;99512.84;5087640;28;19916;-50
2021/07/29 08:41:09;;;;;;;;;;;;;;;41.18;20.06;99505.56;5089297;28;20303;-51
2021/07/29 08:43:34;;;;;;;;;;;;;;;41.32;19.79;99510.22;5097761;28;19915;-51
2021/07/29 08:46:00;;;;;;;;;;;;;;;41.61;19.73;99507.03;5090923;28;20423;-51
2021/07/29 08:48:28;;;;;;;;;;;;;;;41.29;20.15;99508.25;5088949;28;20011;-50
2021/07/29 08:50:54;;;;;;;;;;;;;;;41.39;19.82;99510.16;5089137;28;19912;-49
2021/07/29 08:53:19;;;;;;;;;;;;;;;41.36;20.02;99499.81;5089276;28;19961;-51
2021/07/29 08:55:48;;;;;;;;;;;;;;;41.42;19.73;99500.13;5088918;28;19965;-51
2021/07/29 08:58:14;;;;;;;;;;;;;;;41.86;19.45;99486.34;5088951;28;19965;-50
2021/07/29 09:00:39;;;;;;;;;;;;;;;42.18;18.83;99489.44;5089108;28;19916;-49
2021/07/29 09:03:26;;;;;;;;;;;;;;;42.01;19.21;99479.31;5088825;28;19919;-49
2021/07/29 09:06:01;;;;;;;;;;;;;;;41.55;19.77;99478.81;5088871;28;20011;-49
2021/07/29 09:08:27;;;;;;;;;;;;;;;41.48;19.55;99483.69;5088862;28;19919;-50
2021/07/29 09:10:52;;;;;;;;;;;;;;;41.91;19.15;99477.47;5087338;28;19950;-53
2021/07/29 09:13:18;;;;;;;;;;;;;;;42.13;19.10;99475.94;5089525;28;20378;-52
2021/07/29 09:15:44;;;;;;;;;;;;;;;41.83;19.48;99471.22;5089669;28;19949;-50
2021/07/29 09:18:09;;;;;;;;;;;;;;;41.39;20.07;99465.47;5089743;28;19916;-50
2021/07/29 09:20:35;;;;;;;;;;;;;;;41.77;19.90;99461.75;5089603;28;19924;-49
2021/07/29 09:23:19;;;;;;;;;;;;;;;41.85;19.01;99459.63;5089652;28;19969;-51
2021/07/29 09:25:46;;;;;;;;;;;;;;;42.41;18.50;99453.53;5089355;28;20320;-50
2021/07/29 09:28:12;;;;;;;;;;;;;;;41.63;19.38;99446.00;5089567;28;19923;-52
2021/07/29 09:30:38;;;;;;;;;;;;;;;40.94;19.73;99448.13;5088185;28;19965;-52
2021/07/29 09:33:09;;;;;;;;;;;;;;;41.05;20.00;99451.53;5088277;28;19952;-52
2021/07/29 09:35:44;;;;;;;;;;;;;;;40.60;19.68;99449.66;5089611;28;19916;-50
2021/07/29 09:38:09;;;;;;;;;;;;;;;40.53;20.41;99446.94;5093608;28;19912;-51
2021/07/29 09:40:48;;;;;;;;;;;;;;;41.43;19.60;99448.66;5093343;28;19935;-51
2021/07/29 09:43:14;;;;;;;;;;;;;;;41.18;19.96;99451.78;5098962;28;19922;-52
2021/07/29 09:45:40;;;;;;;;;;;;;;;41.16;19.88;99438.25;5098169;28;19920;-51
2021/07/29 09:48:06;;;;;;;;;;;;;;;41.09;20.25;99434.75;5092696;28;19912;-51
2021/07/29 09:50:32;;;;;;;;;;;;;;;41.54;20.18;99438.13;5093440;28;19919;-52
2021/07/29 09:52:57;;;;;;;;;;;;;;;41.94;19.59;99437.53;5093306;28;19924;-52
2021/07/29 09:55:22;;;;;;;;;;;;;;;42.82;18.85;99435.56;5092902;28;20026;-51
2021/07/29 09:57:48;;;;;;;;;;;;;;;42.76;18.62;99432.47;5092952;28;19970;-50
2021/07/29 10:00:13;;;;;;;;;;;;;;;42.47;18.72;99430.25;5093001;28;19927;-51
2021/07/29 10:02:39;;;;;;;;;;;;;;;42.37;18.34;99426.41;5092541;28;19912;-51
2021/07/29 10:05:04;;;;;;;;;;;;;;;42.60;17.90;99424.81;5091432;28;19916;-51
2021/07/29 10:07:30;;;;;;;;;;;;;;;42.75;17.80;99428.13;5092987;28;19912;-52
2021/07/29 10:09:56;;;;;;;;;;;;;;;43.19;17.29;99420.41;5092948;28;20336;-51
2021/07/29 10:12:22;;;;;;;;;;;;;;;43.33;17.14;99422.09;5091549;28;20018;-51
2021/07/29 10:14:48;;;;;;;;;;;;;;;42.00;18.43;99417.06;5092424;28;20379;-51
2021/07/29 10:17:13;;;;;;;;;;;;;;;40.86;19.48;99427.91;5092751;28;19923;-51
2021/07/29 10:19:57;;;;;;;;;;;;;;;40.84;19.74;99413.56;5091112;28;19932;-51
2021/07/29 10:22:23;;;;;;;;;;;;;;;41.45;19.46;99409.97;5092550;28;20003;-50
2021/07/29 10:24:52;;;;;;;;;;;;;;;41.30;19.51;99414.16;5092602;28;20007;-51
2021/07/29 10:27:17;;;;;;;;;;;;;;;42.46;18.77;99405.47;5092161;28;19916;-51
2021/07/29 10:29:42;;;;;;;;;;;;;;;41.83;18.58;99403.41;5092240;28;19973;-51
2021/07/29 10:32:12;;;;;;;;;;;;;;;41.94;18.82;99390.81;5092085;28;19927;-49
2021/07/29 10:34:37;;;;;;;;;;;;;;;41.54;19.56;99399.03;5091895;28;19920;-51
2021/07/29 10:37:02;;;;;;;;;;;;;;;41.46;20.02;99394.78;5092281;28;20069;-51
2021/07/29 10:39:28;;;;;;;;;;;;;;;42.24;19.36;99386.34;5091991;28;19919;-52
2021/07/29 10:41:54;;;;;;;;;;;;;;;42.47;18.50;99382.72;5091538;28;19947;-50
2021/07/29 10:44:32;;;;;;;;;;;;;;;42.37;18.90;99381.69;5102387;28;19912;-51
2021/07/29 10:46:57;;;;;;;;;;;;;;;42.65;18.29;99385.16;5091298;28;19923;-48
2021/07/29 10:49:22;;;;;;;;;;;;;;;42.90;17.86;99381.09;5091790;28;19916;-50
2021/07/29 10:52:06;;;;;;;;;;;;;;;42.42;17.89;99372.00;5091754;28;19912;-50
2021/07/29 10:54:31;;;;;;;;;;;;;;;42.34;17.87;99370.56;5092087;28;20345;-51
2021/07/29 10:56:57;;;;;;;;;;;;;;;42.51;18.43;99368.66;5091726;28;19919;-50
2021/07/29 10:59:22;;;;;;;;;;;;;;;43.17;17.16;99360.50;5091913;28;19994;-51
2021/07/29 11:01:48;;;;;;;;;;;;;;;42.69;17.55;99365.50;5090617;28;19912;-50
2021/07/29 11:04:13;;;;;;;;;;;;;;;42.87;17.55;99359.53;5091961;28;20006;-49
2021/07/29 11:06:40;;;;;;;;;;;;;;;42.54;17.44;99346.22;5090819;28;20222;-51
2021/07/29 11:09:15;;;;;;;;;;;;;;;42.24;17.81;99355.59;5091872;28;19934;-50
2021/07/29 11:11:40;;;;;;;;;;;;;;;42.66;17.50;99341.97;5092951;28;19916;-51
2021/07/29 11:14:06;;;;;;;;;;;;;;;43.41;17.23;99339.50;5101358;28;20364;-52
2021/07/29 11:16:31;;;;;;;;;;;;;;;42.88;17.78;99338.75;5097588;28;20011;-49
2021/07/29 11:18:57;;;;;;;;;;;;;;;42.03;18.22;99333.63;5106611;28;20296;-50
2021/07/29 11:21:22;;;;;;;;;;;;;;;42.68;17.53;99331.16;5096019;28;19972;-50
2021/07/29 11:23:48;;;;;;;;;;;;;;;42.65;17.48;99322.84;5103222;28;19924;-50
2021/07/29 11:26:13;;;;;;;;;;;;;;;43.36;17.46;99326.06;5102935;28;20093;-48
2021/07/29 11:28:38;;;;;;;;;;;;;;;44.11;16.74;99326.94;5096362;28;19961;-50
2021/07/29 11:31:04;;;;;;;;;;;;;;;44.06;16.01;99313.47;5108179;28;19915;-49
2021/07/29 11:33:30;;;;;;;;;;;;;;;43.59;16.19;99318.72;5097595;28;19964;-49
2021/07/29 11:35:55;;;;;;;;;;;;;;;43.03;16.39;99312.03;5102709;28;19912;-50
2021/07/29 11:38:24;;;;;;;;;;;;;;;42.67;16.97;99307.22;5104305;28;19928;-48
2021/07/29 11:41:02;;;;;;;;;;;;;;;43.27;16.96;99306.25;5112515;28;19916;-50
2021/07/29 11:43:28;;;;;;;;;;;;;;;43.90;15.89;99299.50;5104073;28;19919;-48
2021/07/29 11:46:02;;;;;;;;;;;;;;;44.77;15.10;99303.44;5091827;28;19916;-51
2021/07/29 11:48:28;;;;;;;;;;;;;;;44.33;15.44;99298.31;5091311;28;19951;-50
2021/07/29 11:50:53;;;;;;;;;;;;;;;44.31;15.34;99290.34;5091590;28;20465;-48
2021/07/29 11:53:19;;;;;;;;;;;;;;;44.20;15.93;99295.47;5091135;28;19918;-50
2021/07/29 11:55:54;;;;;;;;;;;;;;;44.01;15.76;99285.97;5090022;28;19930;-50
2021/07/29 11:58:19;;;;;;;;;;;;;;;44.25;15.42;99286.53;5090989;28;19912;-48
2021/07/29 12:00:46;;;;;;;;;;;;;;;44.92;14.89;99284.97;5090592;28;19916;-51
2021/07/29 12:03:11;;;;;;;;;;;;;;;44.59;15.09;99279.53;5089940;28;20356;-53
2021/07/29 12:05:38;;;;;;;;;;;;;;;43.88;15.67;99269.09;5089780;28;19991;-49
2021/07/29 12:08:04;;;;;;;;;;;;;;;43.60;16.02;99273.44;5090847;28;19955;-50
2021/07/29 12:10:29;;;;;;;;;;;;;;;44.01;16.17;99268.38;5089652;28;19961;-48
2021/07/29 12:12:55;;;;;;;;;;;;;;;44.46;15.71;99271.09;5089575;28;19912;-49
2021/07/29 12:15:20;;;;;;;;;;;;;;;44.67;14.51;99263.28;5090943;28;20003;-50
2021/07/29 12:17:46;;;;;;;;;;;;;;;44.91;14.37;99260.94;5091107;28;19912;-50
2021/07/29 12:20:13;;;;;;;;;;;;;;;44.43;14.59;99260.75;5090897;28;19924;-48
2021/07/29 12:22:41;;;;;;;;;;;;;;;43.98;15.69;99258.03;5089597;28;19916;-48
2021/07/29 12:25:09;;;;;;;;;;;;;;;43.59;16.83;99251.50;5090559;28;19999;-49
2021/07/29 12:27:44;;;;;;;;;;;;;;;43.59;15.94;99251.50;5089701;28;19923;-49
2021/07/29 12:30:29;;;;;;;;;;;;;;;43.82;16.08;99251.28;5090874;28;19942;-48
2021/07/29 12:33:08;;;;;;;;;;;;;;;44.09;15.88;99247.31;5089876;28;19919;-50
2021/07/29 12:35:33;;;;;;;;;;;;;;;43.50;17.17;99236.09;5090357;28;20430;-51
2021/07/29 12:37:59;;;;;;;;;;;;;;;43.31;16.91;99228.59;5090564;28;19951;-51
2021/07/29 12:40:25;;;;;;;;;;;;;;;43.27;17.48;99241.88;5090586;28;19999;-49
2021/07/29 12:42:50;;;;;;;;;;;;;;;43.66;16.65;99224.09;5093039;28;19912;-50
2021/07/29 12:45:16;;;;;;;;;;;;;;;43.82;16.60;99228.88;5110916;28;20298;-48